createdAt,value
2022-09-05T00:00:02.167Z,23.40
2022-09-05T00:03:18.355Z,23.40
2022-09-05T00:06:04.103Z,23.40
2022-09-05T00:08:52.244Z,23.40
2022-09-05T00:11:41.471Z,23.40
2022-09-05T00:15:16.219Z,23.40
2022-09-05T00:19:55.986Z,23.40
2022-09-05T00:24:26.687Z,23.40
2022-09-05T00:24:42.387Z,23.40
2022-09-05T00:27:15.363Z,23.40
2022-09-05T00:31:07.680Z,23.50
2022-09-05T00:33:17.923Z,23.40
2022-09-05T00:36:22.034Z,23.40
2022-09-05T00:39:01.877Z,23.40
2022-09-05T00:41:29.697Z,23.50
2022-09-05T00:44:02.605Z,23.50
2022-09-05T00:46:41.096Z,23.50
2022-09-05T00:49:32.966Z,23.50
2022-09-05T00:52:08.620Z,23.40
2022-09-05T00:55:13.682Z,23.50
2022-09-05T00:58:05.149Z,23.40
2022-09-05T01:00:54.007Z,23.50
2022-09-05T01:03:23.740Z,23.50
2022-09-05T01:06:08.818Z,23.50
2022-09-05T01:08:52.180Z,23.50
2022-09-05T01:11:49.594Z,23.50
2022-09-05T01:14:39.378Z,23.60
2022-09-05T01:17:30.599Z,23.50
2022-09-05T01:20:28.236Z,23.60
2022-09-05T01:23:29.707Z,23.50
2022-09-05T01:26:33.680Z,23.60
2022-09-05T01:29:19.839Z,23.60
2022-09-05T01:32:11.938Z,23.60
2022-09-05T01:34:41.591Z,23.60
2022-09-05T01:37:24.680Z,23.60
2022-09-05T01:40:24.092Z,23.60
2022-09-05T01:43:26.262Z,23.60
2022-09-05T01:46:00.749Z,23.60
2022-09-05T01:48:47.719Z,23.60
2022-09-05T01:51:45.981Z,23.60
2022-09-05T01:54:31.371Z,23.60
2022-09-05T01:57:28.922Z,23.30
2022-09-05T01:59:59.818Z,23.60
2022-09-05T02:02:50.393Z,23.60
2022-09-05T02:05:49.204Z,23.60
2022-09-05T02:08:35.393Z,23.60
2022-09-05T02:11:04.226Z,23.60
2022-09-05T02:13:58.325Z,23.60
2022-09-05T02:16:41.395Z,23.60
2022-09-05T02:19:12.241Z,23.60
2022-09-05T02:22:03.418Z,23.60
2022-09-05T02:24:36.066Z,23.60
2022-09-05T02:28:02.181Z,23.70
2022-09-05T02:30:23.019Z,23.60
2022-09-05T02:33:17.072Z,23.60
2022-09-05T02:35:53.016Z,23.60
2022-09-05T02:41:53.984Z,23.60
2022-09-05T02:45:07.953Z,23.60
2022-09-05T02:45:23.947Z,23.60
2022-09-05T02:48:00.107Z,23.60
2022-09-05T02:57:23.000Z,23.60
2022-09-05T02:57:36.694Z,23.70
2022-09-05T02:57:39.223Z,23.60
2022-09-05T03:00:11.681Z,23.60
2022-09-05T03:03:15.383Z,23.70
2022-09-05T03:06:03.121Z,23.60
2022-09-05T03:08:48.651Z,23.60
2022-09-05T03:11:35.695Z,23.60
2022-09-05T03:14:21.177Z,23.60
2022-09-05T03:16:57.893Z,23.70
2022-09-05T03:20:02.518Z,23.60
2022-09-05T03:22:36.311Z,23.60
2022-09-05T03:25:41.538Z,23.70
2022-09-05T03:28:26.511Z,23.70
2022-09-05T03:31:22.197Z,23.60
2022-09-05T03:33:55.301Z,23.70
2022-09-05T03:36:59.522Z,23.60
2022-09-05T03:39:44.479Z,23.60
2022-09-05T03:42:32.872Z,23.70
2022-09-05T03:45:36.580Z,23.70
2022-09-05T03:48:31.491Z,24.50
2022-09-05T03:57:05.714Z,23.70
2022-09-05T03:57:23.791Z,23.70
2022-09-05T03:57:56.182Z,23.70
2022-09-05T04:00:35.271Z,23.70
2022-09-05T04:08:10.847Z,23.60
2022-09-05T04:08:17.180Z,23.70
2022-09-05T04:09:51.921Z,23.70
2022-09-05T04:12:32.530Z,23.60
2022-09-05T04:15:17.424Z,23.60
2022-09-05T04:17:48.626Z,23.60
2022-09-05T04:20:55.111Z,24.20
2022-09-05T04:23:44.918Z,23.60
2022-09-05T04:26:37.906Z,23.60
2022-09-05T04:29:26.284Z,23.60
2022-09-05T04:31:56.259Z,23.50
2022-09-05T04:35:14.098Z,23.60
2022-09-05T04:37:49.700Z,23.60
2022-09-05T04:41:01.076Z,23.60
2022-09-05T04:43:37.858Z,23.60
2022-09-05T04:48:46.768Z,23.60
2022-09-05T04:51:34.891Z,23.60
2022-09-05T04:54:22.375Z,23.60
2022-09-05T04:56:55.572Z,23.60
2022-09-05T05:04:52.142Z,23.60
2022-09-05T05:06:14.656Z,23.60
2022-09-05T05:06:18.348Z,23.60
2022-09-05T05:08:58.275Z,23.60
2022-09-05T05:17:54.098Z,23.60
2022-09-05T05:17:58.509Z,23.60
2022-09-05T05:18:08.634Z,23.60
2022-09-05T05:20:42.798Z,23.50
2022-09-05T05:23:14.832Z,23.50
2022-09-05T05:25:50.216Z,23.50
2022-09-05T05:28:41.460Z,23.50
2022-09-05T05:31:12.933Z,23.50
2022-09-05T05:33:44.902Z,23.50
2022-09-05T05:36:21.441Z,22.90
2022-09-05T05:39:03.094Z,23.50
2022-09-05T05:41:42.438Z,23.50
2022-09-05T05:44:19.244Z,23.50
2022-09-05T05:46:55.529Z,23.50
2022-09-05T05:50:02.252Z,23.50
2022-09-05T05:52:32.063Z,23.50
2022-09-05T05:55:51.901Z,23.40
2022-09-05T05:58:44.803Z,23.50
2022-09-05T06:02:02.479Z,23.50
2022-09-05T06:05:03.834Z,23.50
2022-09-05T06:10:31.800Z,23.50
2022-09-05T06:14:49.960Z,23.50
2022-09-05T06:15:01.764Z,23.50
2022-09-05T06:16:34.905Z,23.50
2022-09-05T06:19:23.846Z,23.50
2022-09-05T06:22:14.750Z,23.50
2022-09-05T06:25:20.327Z,23.50
2022-09-05T06:28:18.649Z,23.60
2022-09-05T06:31:29.783Z,23.50
2022-09-05T06:34:43.798Z,23.60
2022-09-05T06:37:38.718Z,23.60
2022-09-05T06:40:43.167Z,23.60
2022-09-05T06:43:42.534Z,23.60
2022-09-05T06:46:48.265Z,23.60
2022-09-05T06:49:29.785Z,23.60
2022-09-05T06:52:33.212Z,23.70
2022-09-05T06:55:21.967Z,23.60
2022-09-05T06:58:13.917Z,23.60
2022-09-05T07:00:47.665Z,23.60
2022-09-05T07:03:46.819Z,23.70
2022-09-05T07:06:49.427Z,23.60
2022-09-05T07:09:49.675Z,23.70
2022-09-05T07:12:34.183Z,23.60
2022-09-05T07:15:32.337Z,23.70
2022-09-05T07:18:45.299Z,23.70
2022-09-05T07:21:44.334Z,23.70
2022-09-05T07:24:53.341Z,23.60
2022-09-05T07:27:09.130Z,23.70
2022-09-05T07:29:58.920Z,23.70
2022-09-05T07:32:31.333Z,23.70
2022-09-05T07:35:01.359Z,23.70
2022-09-05T07:37:39.299Z,23.70
2022-09-05T07:40:24.966Z,23.70
2022-09-05T07:43:09.109Z,23.70
2022-09-05T07:46:06.034Z,25.90
2022-09-05T07:48:38.407Z,23.70
2022-09-05T07:56:49.196Z,23.50
2022-09-05T07:56:49.589Z,23.70
2022-09-05T07:59:54.943Z,24.10
2022-09-05T08:02:21.967Z,23.70
2022-09-05T08:04:48.930Z,23.70
2022-09-05T08:07:49.929Z,23.80
2022-09-05T08:10:15.795Z,23.80
2022-09-05T08:13:23.468Z,23.80
2022-09-05T08:16:11.171Z,23.80
2022-09-05T08:19:11.774Z,23.80
2022-09-05T08:21:48.207Z,23.80
2022-09-05T08:24:26.756Z,23.80
2022-09-05T08:27:25.408Z,23.70
2022-09-05T08:30:25.010Z,23.80
2022-09-05T08:33:11.019Z,23.80
2022-09-05T08:35:53.279Z,23.80
2022-09-05T08:38:40.282Z,23.70
2022-09-05T08:41:43.203Z,25.30
2022-09-05T08:46:42.891Z,24.30
2022-09-05T08:47:19.982Z,23.80
2022-09-05T08:50:16.315Z,23.80
2022-09-05T08:53:18.648Z,23.80
2022-09-05T08:56:06.263Z,23.80
2022-09-05T08:58:54.049Z,23.80
2022-09-05T09:02:14.597Z,23.80
2022-09-05T09:05:14.185Z,23.80
2022-09-05T09:07:52.070Z,23.80
2022-09-05T09:10:49.329Z,23.80
2022-09-05T09:13:42.130Z,23.80
2022-09-05T09:16:30.423Z,23.80
2022-09-05T09:18:57.199Z,23.80
2022-09-05T09:21:28.892Z,23.80
2022-09-05T09:24:05.708Z,23.80
2022-09-05T09:26:42.667Z,23.80
2022-09-05T09:29:12.379Z,23.80
2022-09-05T09:31:53.138Z,23.80
2022-09-05T09:34:25.974Z,23.90
2022-09-05T09:37:49.803Z,23.80
2022-09-05T09:40:34.284Z,23.90
2022-09-05T09:43:23.041Z,23.80
2022-09-05T09:45:58.800Z,23.90
2022-09-05T09:48:42.064Z,23.90
2022-09-05T09:51:19.169Z,23.90
2022-09-05T09:53:49.909Z,23.90
2022-09-05T09:56:26.517Z,23.90
2022-09-05T09:59:07.587Z,23.90
2022-09-05T10:01:53.435Z,23.90
2022-09-05T10:10:36.188Z,23.90
2022-09-05T10:10:45.886Z,23.90
2022-09-05T10:11:16.814Z,23.90
2022-09-05T10:13:56.686Z,23.90
2022-09-05T10:16:26.592Z,23.90
2022-09-05T10:19:15.731Z,23.90
2022-09-05T10:25:28.758Z,24.00
2022-09-05T10:28:06.622Z,24.00
2022-09-05T10:32:17.951Z,24.00
2022-09-05T10:35:17.458Z,24.00
2022-09-05T10:36:31.254Z,24.00
2022-09-05T10:39:01.302Z,24.00
2022-09-05T10:41:49.197Z,24.00
2022-09-05T10:44:28.446Z,24.00
2022-09-05T10:47:15.545Z,24.00
2022-09-05T10:49:50.078Z,24.00
2022-09-05T10:52:39.844Z,24.00
2022-09-05T10:55:18.599Z,24.10
2022-09-05T10:58:23.493Z,24.10
2022-09-05T11:02:27.452Z,24.10
2022-09-05T11:04:28.684Z,24.10
2022-09-05T11:07:29.216Z,24.10
2022-09-05T11:10:05.224Z,24.10
2022-09-05T11:12:57.368Z,24.00
2022-09-05T11:15:34.284Z,24.10
2022-09-05T11:18:05.199Z,24.10
2022-09-05T11:20:50.528Z,24.10
2022-09-05T11:23:37.232Z,24.10
2022-09-05T11:26:13.322Z,24.10
2022-09-05T11:29:01.789Z,24.10
2022-09-05T11:36:06.899Z,24.20
2022-09-05T11:40:00.459Z,23.90
2022-09-05T11:40:05.508Z,24.10
2022-09-05T11:41:16.218Z,24.20
2022-09-05T11:44:03.806Z,24.10
2022-09-05T11:46:57.377Z,24.10
2022-09-05T11:50:09.197Z,24.10
2022-09-05T11:53:10.203Z,24.10
2022-09-05T11:56:04.231Z,24.10
2022-09-05T11:58:51.959Z,24.10
2022-09-05T12:01:42.852Z,24.10
2022-09-05T12:07:31.595Z,24.10
2022-09-05T12:10:46.863Z,24.10
2022-09-05T12:13:29.239Z,24.10
2022-09-05T12:16:07.470Z,24.10
2022-09-05T12:18:45.747Z,24.10
2022-09-05T12:21:32.414Z,24.10
2022-09-05T12:25:25.357Z,24.10
2022-09-05T12:27:40.098Z,24.10
2022-09-05T12:30:04.585Z,24.10
2022-09-05T12:33:56.640Z,24.10
2022-09-05T12:36:08.505Z,24.20
2022-09-05T12:41:40.752Z,24.10
2022-09-05T12:44:44.485Z,24.20
2022-09-05T12:47:20.308Z,24.10
2022-09-05T12:50:03.213Z,24.20
2022-09-05T12:52:44.124Z,24.20
2022-09-05T12:55:26.090Z,24.20
2022-09-05T13:02:57.553Z,24.20
2022-09-05T13:03:02.328Z,25.70
2022-09-05T13:04:13.441Z,24.20
2022-09-05T13:06:42.579Z,24.10
2022-09-05T13:10:07.661Z,24.10
2022-09-05T13:14:53.865Z,24.10
2022-09-05T13:15:27.199Z,24.50
2022-09-05T13:18:11.063Z,24.20
2022-09-05T13:20:51.328Z,24.20
2022-09-05T13:23:38.194Z,24.30
2022-09-05T13:26:26.329Z,24.20
2022-09-05T13:29:05.976Z,24.20
2022-09-05T13:38:00.050Z,24.20
2022-09-05T13:38:13.080Z,24.20
2022-09-05T13:38:15.621Z,24.20
2022-09-05T13:40:20.450Z,24.20
2022-09-05T13:43:14.820Z,24.20
2022-09-05T13:46:07.793Z,24.30
2022-09-05T13:51:53.890Z,24.20
2022-09-05T13:54:52.298Z,24.20
2022-09-05T13:57:32.596Z,24.30
2022-09-05T14:00:27.582Z,24.20
2022-09-05T14:06:46.576Z,24.20
2022-09-05T14:09:38.017Z,24.20
2022-09-05T14:12:37.972Z,24.20
2022-09-05T14:15:19.021Z,24.20
2022-09-05T14:18:21.391Z,24.20
2022-09-05T14:21:17.797Z,24.20
2022-09-05T14:23:56.276Z,24.20
2022-09-05T14:26:31.029Z,24.60
2022-09-05T14:29:27.035Z,24.20
2022-09-05T14:37:35.439Z,24.20
2022-09-05T14:38:14.748Z,24.20
2022-09-05T14:41:02.802Z,24.20
2022-09-05T14:46:17.719Z,24.20
2022-09-05T14:48:53.524Z,24.20
2022-09-05T14:51:30.254Z,24.20
2022-09-05T14:54:01.150Z,24.20
2022-09-05T15:02:33.978Z,24.20
2022-09-05T15:02:50.942Z,24.20
2022-09-05T15:03:00.694Z,24.20
2022-09-05T15:05:28.750Z,24.20
2022-09-05T15:10:23.985Z,24.10
2022-09-05T15:12:24.408Z,24.20
2022-09-05T15:14:12.319Z,24.20
2022-09-05T15:16:45.535Z,24.20
2022-09-05T15:19:34.042Z,24.20
2022-09-05T15:22:24.463Z,24.20
2022-09-05T15:25:22.531Z,24.10
2022-09-05T15:27:50.597Z,24.20
2022-09-05T15:30:19.594Z,24.10
2022-09-05T15:32:50.623Z,24.20
2022-09-05T15:35:35.832Z,24.20
2022-09-05T15:38:54.836Z,24.10
2022-09-05T15:41:29.784Z,24.20
2022-09-05T15:46:29.583Z,24.20
2022-09-05T15:51:50.050Z,24.10
2022-09-05T15:55:01.475Z,24.20
2022-09-05T15:57:39.572Z,24.10
2022-09-05T16:00:10.106Z,24.10
2022-09-05T16:02:39.902Z,24.10
2022-09-05T16:10:04.084Z,24.10
2022-09-05T16:10:34.970Z,24.20
2022-09-05T16:12:07.393Z,24.10
2022-09-05T16:14:39.410Z,24.10
2022-09-05T16:23:19.449Z,24.10
2022-09-05T16:23:28.978Z,24.10
2022-09-05T16:23:34.733Z,24.20
2022-09-05T16:26:25.746Z,24.10
2022-09-05T16:28:58.518Z,24.10
2022-09-05T16:32:02.034Z,24.10
2022-09-05T16:34:52.421Z,24.10
2022-09-05T16:37:49.435Z,24.10
2022-09-05T16:40:27.595Z,24.10
2022-09-05T16:43:03.988Z,24.10
2022-09-05T16:45:39.227Z,24.10
2022-09-05T16:48:32.246Z,25.60
2022-09-05T16:51:15.454Z,24.10
2022-09-05T16:53:58.017Z,24.10
2022-09-05T16:57:02.531Z,24.10
2022-09-05T16:59:35.393Z,24.10
2022-09-05T17:02:11.344Z,24.10
2022-09-05T17:05:04.963Z,26.60
2022-09-05T17:07:35.390Z,24.10
2022-09-05T17:10:12.035Z,24.10
2022-09-05T17:12:41.215Z,24.10
2022-09-05T17:15:19.321Z,24.10
2022-09-05T17:18:20.467Z,24.10
2022-09-05T17:20:54.755Z,24.10
2022-09-05T17:29:16.124Z,24.10
2022-09-05T17:29:41.402Z,24.10
2022-09-05T17:32:40.574Z,24.10
2022-09-05T17:35:26.059Z,24.10
2022-09-05T17:38:11.448Z,24.10
2022-09-05T17:41:04.027Z,24.10
2022-09-05T17:43:38.556Z,24.10
2022-09-05T17:46:17.227Z,24.10
2022-09-05T17:49:10.171Z,24.30
2022-09-05T17:51:34.383Z,24.10
2022-09-05T17:54:05.280Z,24.10
2022-09-05T17:56:40.683Z,24.10
2022-09-05T17:59:13.528Z,24.10
2022-09-05T18:01:46.463Z,24.10
2022-09-05T18:04:46.518Z,24.10
2022-09-05T18:07:25.586Z,24.10
2022-09-05T18:13:14.330Z,24.10
2022-09-05T18:15:43.850Z,24.10
2022-09-05T18:19:28.118Z,24.10
2022-09-05T18:21:22.349Z,24.10
2022-09-05T18:24:00.331Z,24.10
2022-09-05T18:26:28.471Z,24.10
2022-09-05T18:28:59.112Z,24.10
2022-09-05T18:31:41.442Z,24.10
2022-09-05T18:34:21.438Z,24.10
2022-09-05T18:36:58.143Z,24.10
2022-09-05T18:39:29.450Z,24.10
2022-09-05T18:42:33.313Z,24.10
2022-09-05T18:45:17.578Z,24.10
2022-09-05T18:47:59.673Z,24.10
2022-09-05T18:50:34.251Z,24.00
2022-09-05T18:53:10.171Z,23.90
2022-09-05T18:56:10.115Z,23.80
2022-09-05T18:59:09.450Z,23.70
2022-09-05T19:02:08.156Z,23.60
2022-09-05T19:05:01.064Z,23.60
2022-09-05T19:07:40.586Z,23.50
2022-09-05T19:10:35.460Z,23.50
2022-09-05T19:13:15.585Z,23.40
2022-09-05T19:15:48.506Z,23.40
2022-09-05T19:18:26.621Z,23.40
2022-09-05T19:21:17.744Z,23.40
2022-09-05T19:23:52.506Z,23.40
2022-09-05T19:26:21.048Z,23.40
2022-09-05T19:36:45.877Z,23.30
2022-09-05T19:36:53.680Z,23.30
2022-09-05T19:37:14.270Z,23.30
2022-09-05T19:37:37.454Z,23.10
2022-09-05T19:42:29.844Z,23.10
2022-09-05T19:47:31.255Z,23.00
2022-09-05T19:47:47.689Z,23.00
2022-09-05T19:48:35.242Z,23.90
2022-09-05T19:51:17.370Z,23.00
2022-09-05T19:53:54.061Z,23.00
2022-09-05T19:56:39.544Z,22.90
2022-09-05T19:59:34.019Z,22.90
2022-09-05T20:02:02.703Z,22.90
2022-09-05T20:04:57.124Z,23.00
2022-09-05T20:07:29.630Z,23.00
2022-09-05T20:09:58.890Z,23.00
2022-09-05T20:12:34.001Z,23.00
2022-09-05T20:15:27.784Z,23.00
2022-09-05T20:18:27.709Z,23.00
2022-09-05T20:21:26.460Z,23.00
2022-09-05T20:23:56.222Z,23.10
2022-09-05T20:26:29.536Z,23.00
2022-09-05T20:29:01.543Z,23.00
2022-09-05T20:31:32.924Z,23.00
2022-09-05T20:35:06.342Z,23.00
2022-09-05T20:43:16.874Z,22.90
2022-09-05T20:43:16.951Z,23.00
2022-09-05T20:43:31.959Z,22.90
2022-09-05T20:45:58.790Z,22.90
2022-09-05T20:54:07.777Z,22.90
2022-09-05T20:54:27.234Z,22.90
2022-09-05T20:54:42.060Z,22.90
2022-09-05T20:57:22.839Z,22.90
2022-09-05T20:59:49.894Z,22.90
2022-09-05T21:02:28.688Z,22.90
2022-09-05T21:05:20.124Z,22.90
2022-09-05T21:07:49.802Z,22.90
2022-09-05T21:10:29.648Z,22.90
2022-09-05T21:12:58.684Z,22.90
2022-09-05T21:15:53.527Z,22.90
2022-09-05T21:18:23.434Z,22.90
2022-09-05T21:20:58.446Z,23.30
2022-09-05T21:23:35.272Z,22.90
2022-09-05T21:26:29.279Z,22.90
2022-09-05T21:29:11.418Z,22.90
2022-09-05T21:31:54.934Z,22.80
2022-09-05T21:34:45.143Z,22.80
2022-09-05T21:37:15.043Z,22.80
2022-09-05T21:39:58.711Z,22.80
2022-09-05T21:46:31.652Z,22.90
2022-09-05T21:47:47.403Z,22.90
2022-09-05T21:48:05.704Z,22.90
2022-09-05T21:51:10.563Z,22.80
2022-09-05T21:59:13.433Z,22.80
2022-09-05T21:59:32.964Z,22.80
2022-09-05T21:59:36.620Z,22.90
2022-09-05T22:02:08.279Z,22.60
2022-09-05T22:04:40.828Z,22.80
2022-09-05T22:07:08.300Z,22.80
2022-09-05T22:09:35.070Z,22.80
2022-09-05T22:12:06.096Z,22.90
2022-09-05T22:14:44.774Z,22.90
2022-09-05T22:17:11.996Z,23.00
2022-09-05T22:19:39.224Z,23.00
2022-09-05T22:22:16.243Z,23.00
2022-09-05T22:24:54.902Z,23.00
2022-09-05T22:27:25.663Z,23.10
2022-09-05T22:29:52.938Z,23.10
2022-09-05T22:32:26.631Z,23.10
2022-09-05T22:35:15.791Z,23.10
2022-09-05T22:37:59.189Z,23.10
2022-09-05T22:40:26.396Z,23.10
2022-09-05T22:43:01.250Z,23.10
2022-09-05T22:45:30.083Z,23.20
2022-09-05T22:47:58.363Z,23.20
2022-09-05T22:50:26.130Z,23.20
2022-09-05T22:52:52.986Z,23.20
2022-09-05T22:55:20.074Z,24.30
2022-09-05T22:57:46.896Z,23.80
2022-09-05T23:00:14.106Z,26.10
2022-09-05T23:02:40.977Z,23.30
2022-09-05T23:05:08.518Z,23.00
2022-09-05T23:07:35.327Z,23.20
2022-09-05T23:10:03.971Z,26.10
2022-09-05T23:12:35.501Z,23.30
2022-09-05T23:15:02.377Z,23.70
2022-09-05T23:17:29.195Z,23.30
2022-09-05T23:19:56.458Z,23.10
2022-09-05T23:22:23.160Z,25.30
2022-09-05T23:24:50.207Z,25.40
2022-09-05T23:27:17.147Z,23.30
2022-09-05T23:29:43.923Z,23.10
2022-09-05T23:32:10.630Z,24.90
2022-09-05T23:34:37.383Z,23.40
2022-09-05T23:37:07.994Z,23.90
2022-09-05T23:39:35.053Z,23.80
2022-09-05T23:42:01.923Z,24.10
2022-09-05T23:44:28.737Z,24.30
2022-09-05T23:46:55.575Z,23.20
2022-09-05T23:49:22.300Z,25.60
2022-09-05T23:51:49.056Z,25.40
2022-09-05T23:54:15.893Z,23.40
2022-09-05T23:56:42.654Z,24.00
2022-09-05T23:59:11.551Z,23.40
